createdAt,value
2019-06-26T00:00:19.567Z,24.29
2019-06-26T00:01:20.370Z,24.28
2019-06-26T00:02:20.704Z,24.28
2019-06-26T00:03:21.595Z,24.27
2019-06-26T00:03:30.137Z,24.03
2019-06-26T00:04:31.304Z,24.02
2019-06-26T00:05:31.396Z,24.03
2019-06-26T00:06:31.994Z,24.03
2019-06-26T00:07:32.317Z,24.03
2019-06-26T00:08:33.020Z,24.03
2019-06-26T00:09:33.191Z,24.03
2019-06-26T00:10:34.008Z,24.02
2019-06-26T00:11:34.219Z,24.01
2019-06-26T00:12:34.364Z,24.01
2019-06-26T00:13:35.240Z,24.01
2019-06-26T00:14:38.730Z,24.00
2019-06-26T00:15:36.015Z,23.99
2019-06-26T00:16:37.084Z,23.98
2019-06-26T00:17:38.009Z,23.97
2019-06-26T00:18:38.938Z,23.96
2019-06-26T00:19:38.980Z,23.95
2019-06-26T00:20:39.772Z,23.94
2019-06-26T00:21:40.706Z,23.94
2019-06-26T00:22:40.743Z,23.93
2019-06-26T00:23:39.957Z,23.91
2019-06-26T00:24:41.930Z,23.90
2019-06-26T00:25:42.018Z,23.90
2019-06-26T00:26:42.337Z,23.89
2019-06-26T00:27:43.018Z,23.89
2019-06-26T00:28:43.105Z,23.89
2019-06-26T00:29:44.135Z,23.88
2019-06-26T00:30:44.722Z,23.88
2019-06-26T00:31:44.313Z,23.88
2019-06-26T00:32:46.194Z,23.87
2019-06-26T00:33:46.274Z,23.87
2019-06-26T00:34:47.073Z,23.87
2019-06-26T00:35:47.708Z,23.86
2019-06-26T00:36:48.621Z,23.86
2019-06-26T00:37:48.805Z,23.85
2019-06-26T00:38:47.971Z,23.85
2019-06-26T00:39:49.325Z,23.83
2019-06-26T00:40:50.294Z,23.82
2019-06-26T00:41:50.535Z,23.81
2019-06-26T00:42:50.645Z,23.80
2019-06-26T00:43:50.438Z,23.79
2019-06-26T00:44:52.109Z,23.78
2019-06-26T00:45:53.078Z,23.76
2019-06-26T00:46:53.194Z,23.74
2019-06-26T00:47:53.324Z,23.73
2019-06-26T00:48:54.286Z,23.71
2019-06-26T00:49:54.381Z,23.69
2019-06-26T00:50:02.901Z,23.37
2019-06-26T00:51:04.776Z,23.37
2019-06-26T00:52:05.658Z,23.37
2019-06-26T00:53:05.893Z,23.37
2019-06-26T00:54:05.989Z,23.37
2019-06-26T00:55:05.800Z,23.37
2019-06-26T00:56:07.671Z,23.37
2019-06-26T00:57:08.429Z,23.37
2019-06-26T00:58:08.491Z,23.37
2019-06-26T00:59:09.425Z,23.36
2019-06-26T01:00:09.436Z,23.35
2019-06-26T01:01:10.045Z,23.35
2019-06-26T01:02:10.713Z,23.34
2019-06-26T01:03:10.889Z,23.33
2019-06-26T01:04:11.640Z,23.33
2019-06-26T01:05:12.370Z,23.33
2019-06-26T01:06:13.340Z,23.32
2019-06-26T01:07:13.884Z,23.32
2019-06-26T01:08:14.447Z,23.32
2019-06-26T01:09:14.907Z,23.31
2019-06-26T01:10:14.923Z,23.31
2019-06-26T01:11:15.826Z,23.31
2019-06-26T01:12:16.543Z,23.30
2019-06-26T01:13:17.480Z,23.30
2019-06-26T01:14:17.690Z,23.30
2019-06-26T01:15:18.522Z,23.29
2019-06-26T01:16:18.626Z,23.29
2019-06-26T01:17:18.499Z,23.28
2019-06-26T01:18:20.405Z,23.27
2019-06-26T01:19:20.469Z,23.26
2019-06-26T01:20:21.349Z,23.25
2019-06-26T01:21:21.873Z,23.24
2019-06-26T01:22:22.725Z,23.24
2019-06-26T01:23:22.913Z,23.23
2019-06-26T01:24:23.736Z,23.23
2019-06-26T01:25:23.801Z,23.23
2019-06-26T01:26:24.762Z,23.22
2019-06-26T01:27:25.648Z,23.21
2019-06-26T01:28:26.638Z,23.20
2019-06-26T01:29:26.871Z,23.19
2019-06-26T01:30:27.257Z,23.18
2019-06-26T01:31:27.522Z,23.17
2019-06-26T01:32:27.306Z,23.17
2019-06-26T01:33:29.150Z,23.16
2019-06-26T01:34:29.967Z,23.15
2019-06-26T01:34:38.615Z,22.95
2019-06-26T01:35:38.763Z,22.95
2019-06-26T01:36:39.774Z,22.95
2019-06-26T01:37:40.065Z,22.95
2019-06-26T01:38:41.002Z,22.95
2019-06-26T01:39:41.888Z,22.95
2019-06-26T01:40:42.900Z,22.94
2019-06-26T01:41:43.476Z,22.93
2019-06-26T01:42:43.531Z,22.93
2019-06-26T01:43:43.578Z,22.92
2019-06-26T01:44:44.335Z,22.91
2019-06-26T01:45:45.206Z,22.90
2019-06-26T01:46:45.253Z,22.89
2019-06-26T01:47:45.302Z,22.88
2019-06-26T01:48:45.892Z,22.87
2019-06-26T01:49:46.644Z,22.87
2019-06-26T01:50:47.591Z,22.86
2019-06-26T01:51:48.370Z,22.85
2019-06-26T01:52:49.291Z,22.83
2019-06-26T01:53:50.297Z,22.81
2019-06-26T01:54:50.493Z,22.80
2019-06-26T01:55:50.267Z,22.78
2019-06-26T01:56:51.793Z,22.77
2019-06-26T01:57:52.708Z,22.76
2019-06-26T01:58:52.807Z,22.75
2019-06-26T01:59:53.232Z,22.73
2019-06-26T02:00:54.198Z,22.72
2019-06-26T02:01:54.361Z,22.71
2019-06-26T02:02:55.243Z,22.70
2019-06-26T02:03:55.249Z,22.69
2019-06-26T02:04:56.071Z,22.68
2019-06-26T02:05:56.244Z,22.67
2019-06-26T02:06:57.244Z,22.66
2019-06-26T02:07:57.360Z,22.65
2019-06-26T02:08:58.220Z,22.64
2019-06-26T02:09:58.289Z,22.63
2019-06-26T02:10:58.305Z,22.63
2019-06-26T02:12:00.548Z,22.62
2019-06-26T02:12:57.624Z,22.60
2019-06-26T02:13:58.348Z,22.59
2019-06-26T02:15:00.098Z,22.58
2019-06-26T02:16:00.939Z,22.56
2019-06-26T02:17:01.243Z,22.55
2019-06-26T02:18:02.142Z,22.54
2019-06-26T02:19:03.133Z,22.52
2019-06-26T02:20:04.102Z,22.51
2019-06-26T02:21:04.826Z,22.50
2019-06-26T02:21:13.394Z,22.40
2019-06-26T02:22:15.277Z,22.40
2019-06-26T02:23:16.042Z,22.40
2019-06-26T02:24:16.970Z,22.40
2019-06-26T02:25:17.448Z,22.40
2019-06-26T02:26:17.911Z,22.40
2019-06-26T02:27:18.301Z,22.40
2019-06-26T02:28:19.188Z,22.40
2019-06-26T02:29:19.708Z,22.39
2019-06-26T02:30:20.633Z,22.38
2019-06-26T02:31:21.565Z,22.37
2019-06-26T02:32:21.640Z,22.36
2019-06-26T02:33:21.904Z,22.35
2019-06-26T02:34:22.640Z,22.34
2019-06-26T02:35:23.615Z,22.33
2019-06-26T02:36:24.281Z,22.32
2019-06-26T02:37:25.230Z,22.31
2019-06-26T02:38:25.288Z,22.31
2019-06-26T02:39:26.255Z,22.30
2019-06-26T02:40:26.515Z,22.30
2019-06-26T02:41:27.202Z,22.30
2019-06-26T02:42:27.407Z,22.30
2019-06-26T02:43:27.405Z,22.29
2019-06-26T02:44:28.155Z,22.28
2019-06-26T02:45:28.833Z,22.27
2019-06-26T02:46:27.910Z,22.27
2019-06-26T02:47:29.035Z,22.26
2019-06-26T02:48:29.007Z,22.26
2019-06-26T02:49:29.102Z,22.25
2019-06-26T02:50:29.211Z,22.23
2019-06-26T02:51:29.283Z,22.21
2019-06-26T02:52:30.239Z,22.19
2019-06-26T02:53:30.288Z,22.17
2019-06-26T02:54:30.447Z,22.15
2019-06-26T02:55:30.845Z,22.13
2019-06-26T02:56:31.274Z,22.11
2019-06-26T02:57:31.697Z,22.09
2019-06-26T02:58:32.450Z,22.08
2019-06-26T02:59:33.341Z,22.06
2019-06-26T03:00:34.060Z,22.04
2019-06-26T03:01:35.010Z,22.02
2019-06-26T03:02:36.025Z,22.01
2019-06-26T03:03:36.305Z,22.00
2019-06-26T03:03:44.875Z,21.86
2019-06-26T03:04:46.043Z,21.86
2019-06-26T03:05:46.984Z,21.85
2019-06-26T03:06:47.819Z,21.85
2019-06-26T03:07:48.649Z,21.86
2019-06-26T03:08:48.628Z,21.86
2019-06-26T03:09:49.069Z,21.85
2019-06-26T03:10:49.366Z,21.85
2019-06-26T03:11:49.647Z,21.85
2019-06-26T03:12:49.687Z,21.84
2019-06-26T03:13:49.917Z,21.84
2019-06-26T03:14:50.803Z,21.84
2019-06-26T03:15:51.041Z,21.83
2019-06-26T03:16:51.170Z,21.83
2019-06-26T03:17:55.591Z,21.82
2019-06-26T03:18:52.066Z,21.82
2019-06-26T03:19:53.886Z,21.81
2019-06-26T03:20:53.996Z,21.81
2019-06-26T03:21:54.974Z,21.81
2019-06-26T03:22:55.872Z,21.81
2019-06-26T03:23:56.731Z,21.81
2019-06-26T03:24:57.074Z,21.81
2019-06-26T03:25:57.365Z,21.81
2019-06-26T03:26:57.511Z,21.80
2019-06-26T03:27:57.084Z,21.79
2019-06-26T03:28:58.264Z,21.78
2019-06-26T03:29:58.481Z,21.77
2019-06-26T03:30:57.888Z,21.76
2019-06-26T03:31:58.887Z,21.75
2019-06-26T03:32:58.899Z,21.75
2019-06-26T03:33:59.887Z,21.74
2019-06-26T03:35:00.615Z,21.74
2019-06-26T03:36:00.729Z,21.74
2019-06-26T03:37:00.733Z,21.74
2019-06-26T03:37:59.745Z,21.74
2019-06-26T03:39:01.575Z,21.74
2019-06-26T03:40:02.252Z,21.75
2019-06-26T03:41:03.214Z,21.75
2019-06-26T03:42:03.823Z,21.76
2019-06-26T03:43:03.867Z,21.77
2019-06-26T03:44:04.655Z,21.78
2019-06-26T03:45:05.603Z,21.78
2019-06-26T03:46:06.365Z,21.78
2019-06-26T03:47:06.747Z,21.78
2019-06-26T03:48:07.606Z,21.79
2019-06-26T03:49:08.381Z,21.79
2019-06-26T03:49:16.907Z,21.87
2019-06-26T03:50:18.940Z,21.87
2019-06-26T03:51:19.353Z,21.87
2019-06-26T03:52:20.170Z,21.87
2019-06-26T03:53:20.844Z,21.87
2019-06-26T03:54:21.442Z,21.87
2019-06-26T03:55:22.400Z,21.87
2019-06-26T03:56:23.335Z,21.88
2019-06-26T03:57:24.287Z,21.87
2019-06-26T03:58:24.965Z,21.86
2019-06-26T03:59:25.174Z,21.85
2019-06-26T04:00:26.194Z,21.85
2019-06-26T04:01:26.932Z,21.85
2019-06-26T04:02:27.117Z,21.84
2019-06-26T04:03:28.031Z,21.84
2019-06-26T04:04:28.626Z,21.83
2019-06-26T04:05:28.688Z,21.82
2019-06-26T04:06:28.925Z,21.81
2019-06-26T04:07:29.054Z,21.79
2019-06-26T04:08:29.756Z,21.78
2019-06-26T04:09:28.990Z,21.77
2019-06-26T04:10:30.055Z,21.76
2019-06-26T04:11:30.833Z,21.75
2019-06-26T04:12:31.139Z,21.74
2019-06-26T04:13:31.249Z,21.72
2019-06-26T04:14:32.222Z,21.71
2019-06-26T04:15:42.077Z,21.70
2019-06-26T04:16:32.909Z,21.69
2019-06-26T04:17:34.121Z,21.68
2019-06-26T04:18:34.886Z,21.68
2019-06-26T04:19:35.765Z,21.68
2019-06-26T04:20:35.848Z,21.67
2019-06-26T04:21:35.950Z,21.67
2019-06-26T04:22:36.844Z,21.67
2019-06-26T04:23:37.568Z,21.67
2019-06-26T04:24:38.534Z,21.67
2019-06-26T04:25:38.980Z,21.67
2019-06-26T04:26:39.369Z,21.67
2019-06-26T04:27:40.106Z,21.66
2019-06-26T04:28:39.943Z,21.67
2019-06-26T04:29:41.823Z,21.67
2019-06-26T04:30:41.992Z,21.68
2019-06-26T04:31:42.870Z,21.68
2019-06-26T04:32:43.671Z,21.69
2019-06-26T04:32:52.240Z,21.77
2019-06-26T04:33:53.920Z,21.77
2019-06-26T04:34:54.731Z,21.77
2019-06-26T04:35:54.973Z,21.77
2019-06-26T04:36:55.785Z,21.78
2019-06-26T04:37:56.611Z,21.78
2019-06-26T04:38:57.153Z,21.79
2019-06-26T04:39:58.150Z,21.79
2019-06-26T04:40:58.269Z,21.80
2019-06-26T04:41:59.213Z,21.81
2019-06-26T04:43:00.067Z,21.82
2019-06-26T04:44:00.181Z,21.83
2019-06-26T04:45:00.979Z,21.84
2019-06-26T04:46:02.012Z,21.85
2019-06-26T04:47:01.615Z,21.86
2019-06-26T04:48:02.202Z,21.87
2019-06-26T04:49:04.169Z,21.88
2019-06-26T04:50:05.167Z,21.89
2019-06-26T04:51:05.333Z,21.90
2019-06-26T04:52:06.104Z,21.91
2019-06-26T04:53:06.546Z,21.92
2019-06-26T04:54:05.746Z,21.93
2019-06-26T04:55:07.163Z,21.94
2019-06-26T04:56:06.997Z,21.96
2019-06-26T04:57:08.600Z,21.98
2019-06-26T04:58:09.045Z,21.98
2019-06-26T04:59:08.325Z,22.00
2019-06-26T05:00:09.361Z,22.01
2019-06-26T05:01:10.029Z,22.02
2019-06-26T05:02:09.071Z,22.03
2019-06-26T05:03:09.898Z,22.04
2019-06-26T05:04:11.787Z,22.06
2019-06-26T05:05:12.676Z,22.09
2019-06-26T05:06:13.649Z,22.12
2019-06-26T05:07:14.533Z,22.17
2019-06-26T05:08:15.545Z,22.23
2019-06-26T05:09:14.825Z,22.30
2019-06-26T05:10:16.179Z,22.38
2019-06-26T05:11:16.565Z,22.47
2019-06-26T05:12:16.688Z,22.58
2019-06-26T05:13:17.705Z,22.67
2019-06-26T05:14:18.635Z,22.76
2019-06-26T05:15:19.279Z,22.86
2019-06-26T05:16:20.599Z,22.96
2019-06-26T05:17:19.663Z,23.09
2019-06-26T05:18:20.911Z,23.20
2019-06-26T05:19:21.263Z,23.32
2019-06-26T05:20:21.435Z,23.44
2019-06-26T05:21:22.320Z,23.56
2019-06-26T05:22:22.353Z,23.66
2019-06-26T05:23:23.066Z,23.76
2019-06-26T05:23:31.633Z,25.40
2019-06-26T05:24:33.514Z,25.40
2019-06-26T05:25:33.573Z,25.41
2019-06-26T05:26:34.515Z,25.41
2019-06-26T05:27:35.122Z,25.42
2019-06-26T05:28:36.094Z,25.44
2019-06-26T05:29:36.835Z,25.47
2019-06-26T05:30:36.737Z,25.50
2019-06-26T05:31:38.005Z,25.55
2019-06-26T05:32:38.748Z,25.62
2019-06-26T05:33:39.524Z,25.68
2019-06-26T05:34:39.575Z,25.76
2019-06-26T05:35:40.036Z,25.82
2019-06-26T05:36:40.892Z,25.91
2019-06-26T05:37:40.919Z,26.01
2019-06-26T05:38:41.006Z,26.12
2019-06-26T05:39:41.375Z,26.23
2019-06-26T05:40:42.347Z,26.34
2019-06-26T05:41:43.006Z,26.46
2019-06-26T05:42:43.567Z,26.58
2019-06-26T05:43:44.433Z,26.69
2019-06-26T05:44:44.692Z,26.79
2019-06-26T05:45:45.252Z,26.89
2019-06-26T05:46:45.726Z,26.98
2019-06-26T05:47:46.435Z,27.05
2019-06-26T05:48:47.342Z,27.10
2019-06-26T05:49:47.899Z,27.18
2019-06-26T05:50:48.746Z,27.27
2019-06-26T05:51:49.707Z,27.37
2019-06-26T05:52:50.601Z,27.46
2019-06-26T05:53:50.631Z,27.56
2019-06-26T05:54:50.648Z,27.67
2019-06-26T05:55:51.056Z,27.76
2019-06-26T05:56:52.061Z,27.87
2019-06-26T05:57:51.666Z,27.98
2019-06-26T05:58:52.798Z,28.08
2019-06-26T05:59:53.691Z,28.19
2019-06-26T06:00:53.752Z,28.29
2019-06-26T06:01:54.454Z,28.39
2019-06-26T06:02:55.418Z,28.49
2019-06-26T06:03:56.085Z,28.59
2019-06-26T06:04:56.966Z,28.68
2019-06-26T06:05:57.785Z,28.75
2019-06-26T06:06:57.822Z,28.83
2019-06-26T06:07:58.057Z,28.91
2019-06-26T06:08:06.600Z,30.30
2019-06-26T06:09:07.801Z,30.30
2019-06-26T06:10:07.880Z,30.27
2019-06-26T06:11:07.874Z,30.24
2019-06-26T06:12:08.504Z,30.23
2019-06-26T06:13:08.514Z,30.24
2019-06-26T06:14:08.759Z,30.27
2019-06-26T06:15:08.860Z,30.30
2019-06-26T06:16:09.696Z,30.33
2019-06-26T06:17:10.067Z,30.39
2019-06-26T06:18:10.244Z,30.47
2019-06-26T06:19:11.165Z,30.56
2019-06-26T06:20:11.622Z,30.65
2019-06-26T06:21:11.914Z,30.72
2019-06-26T06:22:12.818Z,30.80
2019-06-26T06:23:13.682Z,30.90
2019-06-26T06:24:14.085Z,30.99
2019-06-26T06:25:13.283Z,31.09
2019-06-26T06:26:14.193Z,31.19
2019-06-26T06:27:15.105Z,31.29
2019-06-26T06:28:16.902Z,31.41
2019-06-26T06:29:17.306Z,31.54
2019-06-26T06:30:18.188Z,31.66
2019-06-26T06:31:17.152Z,31.80
2019-06-26T06:32:18.982Z,31.94
2019-06-26T06:33:19.659Z,32.08
2019-06-26T06:34:20.518Z,32.20
2019-06-26T06:35:20.901Z,32.31
2019-06-26T06:36:21.108Z,32.39
2019-06-26T06:37:21.380Z,32.51
2019-06-26T06:38:22.081Z,32.64
2019-06-26T06:39:22.464Z,32.75
2019-06-26T06:40:23.480Z,32.87
2019-06-26T06:41:24.423Z,33.00
2019-06-26T06:42:24.295Z,33.13
2019-06-26T06:43:25.578Z,33.26
2019-06-26T06:44:26.500Z,33.41
2019-06-26T06:45:26.649Z,33.56
2019-06-26T06:46:27.459Z,33.70
2019-06-26T06:47:27.851Z,33.81
2019-06-26T06:48:28.738Z,33.92
2019-06-26T06:49:28.903Z,34.06
2019-06-26T06:50:29.542Z,34.20
2019-06-26T06:51:30.423Z,34.35
2019-06-26T06:52:30.921Z,34.48
2019-06-26T06:53:31.926Z,34.61
2019-06-26T06:53:40.444Z,36.16
2019-06-26T06:54:41.478Z,36.15
2019-06-26T06:55:41.594Z,36.15
2019-06-26T06:56:42.452Z,36.17
2019-06-26T06:57:42.616Z,36.21
2019-06-26T06:58:42.899Z,36.24
2019-06-26T06:59:41.995Z,36.28
2019-06-26T07:00:43.310Z,36.30
2019-06-26T07:01:43.899Z,36.31
2019-06-26T07:02:44.815Z,36.34
2019-06-26T07:03:44.958Z,36.36
2019-06-26T07:04:45.802Z,36.35
2019-06-26T07:05:45.949Z,36.37
2019-06-26T07:06:46.408Z,36.37
2019-06-26T07:07:46.520Z,36.36
2019-06-26T07:08:46.523Z,36.33
2019-06-26T07:09:47.519Z,36.29
2019-06-26T07:10:46.588Z,36.26
2019-06-26T07:11:48.415Z,36.22
2019-06-26T07:12:48.529Z,36.13
2019-06-26T07:13:49.403Z,35.92
2019-06-26T07:14:49.566Z,35.76
2019-06-26T07:15:49.917Z,35.62
2019-06-26T07:16:49.878Z,35.49
2019-06-26T07:17:51.504Z,35.38
2019-06-26T07:18:52.400Z,35.28
2019-06-26T07:19:53.238Z,35.19
2019-06-26T07:20:53.456Z,35.09
2019-06-26T07:21:54.306Z,34.99
2019-06-26T07:22:55.193Z,34.90
2019-06-26T07:23:56.009Z,34.81
2019-06-26T07:24:56.924Z,34.73
2019-06-26T07:25:57.029Z,34.66
2019-06-26T07:26:57.858Z,34.59
2019-06-26T07:28:01.804Z,34.51
2019-06-26T07:28:58.770Z,34.45
2019-06-26T07:30:00.510Z,34.38
2019-06-26T07:31:01.284Z,34.33
2019-06-26T07:32:02.117Z,34.27
2019-06-26T07:33:02.367Z,34.21
2019-06-26T07:34:02.481Z,34.17
2019-06-26T07:35:02.812Z,34.12
2019-06-26T07:36:01.707Z,34.08
2019-06-26T07:37:01.845Z,34.02
2019-06-26T07:38:03.443Z,33.96
2019-06-26T07:39:03.616Z,33.91
2019-06-26T07:40:04.224Z,33.84
2019-06-26T07:40:13.261Z,32.78
2019-06-26T07:41:15.017Z,32.77
2019-06-26T07:42:15.819Z,32.78
2019-06-26T07:43:16.807Z,32.79
2019-06-26T07:44:16.038Z,32.79
2019-06-26T07:45:17.811Z,32.78
2019-06-26T07:46:18.407Z,32.76
2019-06-26T07:47:23.471Z,32.75
2019-06-26T07:48:18.212Z,32.73
2019-06-26T07:49:18.880Z,32.73
2019-06-26T07:50:20.711Z,32.72
2019-06-26T07:51:20.947Z,32.72
2019-06-26T07:52:21.631Z,32.70
2019-06-26T07:53:22.580Z,32.68
2019-06-26T07:54:22.255Z,32.64
2019-06-26T07:55:23.159Z,32.61
2019-06-26T07:56:24.833Z,32.58
2019-06-26T07:57:23.863Z,32.56
2019-06-26T07:58:25.637Z,32.55
2019-06-26T07:59:25.658Z,32.55
2019-06-26T08:00:26.528Z,32.55
2019-06-26T08:01:27.488Z,32.54
2019-06-26T08:02:27.084Z,32.54
2019-06-26T08:03:28.788Z,32.53
2019-06-26T08:04:29.510Z,32.53
2019-06-26T08:05:30.442Z,32.53
2019-06-26T08:06:31.345Z,32.52
2019-06-26T08:07:31.413Z,32.51
2019-06-26T08:08:31.595Z,32.51
2019-06-26T08:09:32.179Z,32.51
2019-06-26T08:10:32.283Z,32.51
2019-06-26T08:11:31.351Z,32.51
2019-06-26T08:12:32.209Z,32.51
2019-06-26T08:13:33.270Z,32.50
2019-06-26T08:14:33.970Z,32.50
2019-06-26T08:15:34.917Z,32.50
2019-06-26T08:16:35.545Z,32.49
2019-06-26T08:17:35.655Z,32.47
2019-06-26T08:18:34.772Z,32.45
2019-06-26T08:19:36.730Z,32.43
2019-06-26T08:20:51.966Z,32.42
2019-06-26T08:21:37.095Z,32.40
2019-06-26T08:22:37.214Z,32.39
2019-06-26T08:23:39.212Z,32.37
2019-06-26T08:24:38.293Z,32.35
2019-06-26T08:25:38.982Z,32.33
2019-06-26T08:26:40.122Z,32.30
2019-06-26T08:27:40.923Z,32.27
2019-06-26T08:28:41.057Z,32.23
2019-06-26T08:29:41.292Z,32.18
2019-06-26T08:30:42.122Z,32.14
2019-06-26T08:31:42.905Z,32.09
2019-06-26T08:32:43.511Z,32.04
2019-06-26T08:32:52.095Z,31.19
2019-06-26T08:33:53.906Z,31.19
2019-06-26T08:34:54.852Z,31.18
2019-06-26T08:35:54.652Z,31.18
2019-06-26T08:36:54.702Z,31.18
2019-06-26T08:38:09.434Z,31.19
2019-06-26T08:38:56.399Z,31.19
2019-06-26T08:39:58.120Z,31.21
2019-06-26T08:40:58.903Z,31.21
2019-06-26T08:41:58.840Z,31.22
2019-06-26T08:42:59.893Z,31.23
2019-06-26T08:44:00.103Z,31.25
2019-06-26T08:44:59.137Z,31.26
2019-06-26T08:46:00.993Z,31.27
2019-06-26T08:47:01.038Z,31.28
2019-06-26T08:48:16.914Z,31.29
2019-06-26T08:49:03.160Z,31.30
2019-06-26T08:50:02.996Z,31.31
2019-06-26T08:51:02.862Z,31.32
2019-06-26T08:52:02.756Z,31.32
2019-06-26T08:53:03.458Z,31.31
2019-06-26T08:54:05.427Z,31.31
2019-06-26T08:55:05.692Z,31.31
2019-06-26T08:56:05.868Z,31.31
2019-06-26T08:57:04.999Z,31.31
2019-06-26T08:58:06.621Z,31.31
2019-06-26T08:59:07.616Z,31.31
2019-06-26T09:00:07.604Z,31.32
2019-06-26T09:01:07.641Z,31.31
2019-06-26T09:02:07.693Z,31.30
2019-06-26T09:03:08.560Z,31.29
2019-06-26T09:04:09.598Z,31.28
2019-06-26T09:05:10.555Z,31.27
2019-06-26T09:06:10.467Z,31.25
2019-06-26T09:07:12.244Z,31.24
2019-06-26T09:08:13.278Z,31.23
2019-06-26T09:09:13.091Z,31.23
2019-06-26T09:10:14.981Z,31.21
2019-06-26T09:11:15.714Z,31.19
2019-06-26T09:12:16.456Z,31.19
2019-06-26T09:13:17.244Z,31.18
2019-06-26T09:14:18.249Z,31.16
2019-06-26T09:15:18.355Z,31.15
2019-06-26T09:16:18.993Z,31.14
2019-06-26T09:17:19.659Z,31.13
2019-06-26T09:18:34.872Z,31.12
2019-06-26T09:19:20.136Z,31.11
2019-06-26T09:20:21.983Z,31.11
2019-06-26T09:21:22.943Z,31.10
2019-06-26T09:22:23.730Z,31.10
2019-06-26T09:23:24.565Z,31.11
2019-06-26T09:24:25.401Z,31.13
2019-06-26T09:25:26.300Z,31.15
2019-06-26T09:25:34.890Z,31.53
2019-06-26T09:26:36.032Z,31.53
2019-06-26T09:27:36.179Z,31.53
2019-06-26T09:28:36.266Z,31.54
2019-06-26T09:29:37.071Z,31.56
2019-06-26T09:30:37.963Z,31.57
2019-06-26T09:31:38.625Z,31.59
2019-06-26T09:32:39.344Z,31.62
2019-06-26T09:33:39.397Z,31.64
2019-06-26T09:34:39.401Z,31.67
2019-06-26T09:35:40.107Z,31.70
2019-06-26T09:36:40.817Z,31.72
2019-06-26T09:37:40.121Z,31.74
2019-06-26T09:38:42.112Z,31.77
2019-06-26T09:39:42.835Z,31.78
2019-06-26T09:40:43.693Z,31.81
2019-06-26T09:41:43.894Z,31.84
2019-06-26T09:42:44.699Z,31.86
2019-06-26T09:43:45.579Z,31.88
2019-06-26T09:44:46.332Z,31.90
2019-06-26T09:45:46.991Z,31.93
2019-06-26T09:46:47.639Z,31.96
2019-06-26T09:47:47.908Z,31.98
2019-06-26T09:48:53.044Z,32.02
2019-06-26T09:49:47.831Z,32.05
2019-06-26T09:50:49.483Z,32.08
2019-06-26T09:51:49.697Z,32.12
2019-06-26T09:52:50.353Z,32.15
2019-06-26T09:53:50.127Z,32.18
2019-06-26T09:54:51.114Z,32.21
2019-06-26T09:55:51.868Z,32.25
2019-06-26T09:56:52.843Z,32.28
2019-06-26T09:57:53.787Z,32.31
2019-06-26T09:58:54.663Z,32.35
2019-06-26T09:59:53.832Z,32.38
2019-06-26T10:00:55.516Z,32.41
2019-06-26T10:01:55.702Z,32.42
2019-06-26T10:02:55.163Z,32.45
2019-06-26T10:03:57.083Z,32.48
2019-06-26T10:04:57.842Z,32.50
2019-06-26T10:05:58.503Z,32.52
2019-06-26T10:06:59.328Z,32.55
2019-06-26T10:08:00.001Z,32.59
2019-06-26T10:09:00.412Z,32.63
2019-06-26T10:10:00.532Z,32.67
2019-06-26T10:11:02.339Z,32.71
2019-06-26T10:12:01.766Z,32.76
2019-06-26T10:12:10.277Z,33.53
2019-06-26T10:13:11.481Z,33.53
2019-06-26T10:14:12.239Z,33.53
2019-06-26T10:15:13.188Z,33.53
2019-06-26T10:16:13.865Z,33.53
2019-06-26T10:17:14.437Z,33.53
2019-06-26T10:18:15.191Z,33.53
2019-06-26T10:19:15.862Z,33.52
2019-06-26T10:20:16.748Z,33.51
2019-06-26T10:21:17.653Z,33.50
2019-06-26T10:22:18.647Z,33.50
2019-06-26T10:23:18.715Z,33.49
2019-06-26T10:24:19.698Z,33.48
2019-06-26T10:25:19.855Z,33.48
2019-06-26T10:26:20.730Z,33.48
2019-06-26T10:27:21.513Z,33.49
2019-06-26T10:28:21.776Z,33.50
2019-06-26T10:29:22.747Z,33.51
2019-06-26T10:30:23.500Z,33.52
2019-06-26T10:31:24.481Z,33.54
2019-06-26T10:32:25.407Z,33.55
2019-06-26T10:33:26.335Z,33.55
2019-06-26T10:34:26.998Z,33.55
2019-06-26T10:35:27.761Z,33.54
2019-06-26T10:36:28.451Z,33.52
2019-06-26T10:37:29.216Z,33.50
2019-06-26T10:38:29.964Z,33.48
2019-06-26T10:39:30.845Z,33.46
2019-06-26T10:40:31.625Z,33.45
2019-06-26T10:41:32.547Z,33.45
2019-06-26T10:42:32.671Z,33.46
2019-06-26T10:43:33.578Z,33.46
2019-06-26T10:44:34.053Z,33.47
2019-06-26T10:45:36.163Z,33.48
2019-06-26T10:46:33.421Z,33.48
2019-06-26T10:47:34.635Z,33.49
2019-06-26T10:48:34.770Z,33.50
2019-06-26T10:49:35.753Z,33.51
2019-06-26T10:50:47.586Z,33.53
2019-06-26T10:51:35.457Z,33.55
2019-06-26T10:52:37.220Z,33.57
2019-06-26T10:53:38.118Z,33.60
2019-06-26T10:54:39.054Z,33.62
2019-06-26T10:55:39.812Z,33.65
2019-06-26T10:56:40.709Z,33.68
2019-06-26T10:56:49.777Z,34.16
2019-06-26T10:57:50.486Z,34.16
2019-06-26T10:58:52.282Z,34.16
2019-06-26T10:59:55.670Z,34.15
2019-06-26T11:00:52.811Z,34.15
2019-06-26T11:01:54.159Z,34.14
2019-06-26T11:02:54.845Z,34.12
2019-06-26T11:03:55.650Z,34.10
2019-06-26T11:04:57.514Z,34.09
2019-06-26T11:05:57.246Z,34.08
2019-06-26T11:06:58.492Z,34.08
2019-06-26T11:07:58.074Z,34.09
2019-06-26T11:08:59.984Z,34.09
2019-06-26T11:10:00.729Z,34.09
2019-06-26T11:11:01.490Z,34.10
2019-06-26T11:12:02.641Z,34.11
2019-06-26T11:13:01.674Z,34.12
2019-06-26T11:14:02.403Z,34.13
2019-06-26T11:15:03.223Z,34.15
2019-06-26T11:16:03.117Z,34.17
2019-06-26T11:17:04.964Z,34.18
2019-06-26T11:18:05.199Z,34.21
2019-06-26T11:19:05.385Z,34.23
2019-06-26T11:20:05.624Z,34.26
2019-06-26T11:21:05.706Z,34.28
2019-06-26T11:22:06.633Z,34.29
2019-06-26T11:23:07.619Z,34.31
2019-06-26T11:24:07.687Z,34.34
2019-06-26T11:25:07.724Z,34.36
2019-06-26T11:26:08.623Z,34.39
2019-06-26T11:27:09.533Z,34.42
2019-06-26T11:28:09.740Z,34.46
2019-06-26T11:29:10.003Z,34.50
2019-06-26T11:30:10.173Z,34.53
2019-06-26T11:31:11.054Z,34.57
2019-06-26T11:32:11.235Z,34.60
2019-06-26T11:33:12.183Z,34.63
2019-06-26T11:34:12.379Z,34.66
2019-06-26T11:35:13.402Z,34.70
2019-06-26T11:36:13.429Z,34.71
2019-06-26T11:37:13.433Z,34.70
2019-06-26T11:38:13.572Z,34.69
2019-06-26T11:39:13.824Z,34.70
2019-06-26T11:40:14.292Z,34.70
2019-06-26T11:41:14.593Z,34.70
2019-06-26T11:42:15.006Z,34.71
2019-06-26T11:43:15.925Z,34.73
2019-06-26T11:44:15.998Z,34.74
2019-06-26T11:44:24.566Z,34.87
2019-06-26T11:45:24.769Z,34.86
2019-06-26T11:46:25.844Z,34.87
2019-06-26T11:47:26.217Z,34.88
2019-06-26T11:48:26.521Z,34.88
2019-06-26T11:49:26.766Z,34.88
2019-06-26T11:50:27.600Z,34.89
2019-06-26T11:51:28.461Z,34.90
2019-06-26T11:52:29.342Z,34.92
2019-06-26T11:53:29.581Z,34.94
2019-06-26T11:54:30.305Z,34.97
2019-06-26T11:55:30.358Z,34.99
2019-06-26T11:56:30.909Z,35.01
2019-06-26T11:57:30.968Z,35.03
2019-06-26T11:58:30.126Z,35.05
2019-06-26T11:59:31.159Z,35.07
2019-06-26T12:00:31.491Z,35.10
2019-06-26T12:01:31.606Z,35.13
2019-06-26T12:02:31.693Z,35.15
2019-06-26T12:03:31.881Z,35.17
2019-06-26T12:04:31.978Z,35.19
2019-06-26T12:05:32.265Z,35.21
2019-06-26T12:06:32.771Z,35.23
2019-06-26T12:07:31.825Z,35.25
2019-06-26T12:08:33.035Z,35.27
2019-06-26T12:09:33.387Z,35.29
2019-06-26T12:10:33.720Z,35.30
2019-06-26T12:11:34.055Z,35.31
2019-06-26T12:12:34.492Z,35.33
2019-06-26T12:13:34.673Z,35.34
2019-06-26T12:14:34.852Z,35.36
2019-06-26T12:15:35.403Z,35.37
2019-06-26T12:16:35.615Z,35.39
2019-06-26T12:17:35.824Z,35.39
2019-06-26T12:18:35.985Z,35.39
2019-06-26T12:19:36.222Z,35.40
2019-06-26T12:20:36.254Z,35.41
2019-06-26T12:21:36.397Z,35.42
2019-06-26T12:22:36.650Z,35.43
2019-06-26T12:23:36.859Z,35.43
2019-06-26T12:24:36.967Z,35.42
2019-06-26T12:25:37.153Z,35.43
2019-06-26T12:26:37.315Z,35.44
2019-06-26T12:27:36.441Z,35.44
2019-06-26T12:28:37.864Z,35.43
2019-06-26T12:28:46.425Z,35.39
2019-06-26T12:29:48.024Z,35.39
2019-06-26T12:30:48.332Z,35.38
2019-06-26T12:31:48.425Z,35.37
2019-06-26T12:33:02.387Z,35.36
2019-06-26T12:33:48.253Z,35.36
2019-06-26T12:34:49.514Z,35.36
2019-06-26T12:35:49.214Z,35.35
2019-06-26T12:36:50.742Z,35.35
2019-06-26T12:37:50.110Z,35.35
2019-06-26T12:38:51.314Z,35.35
2019-06-26T12:39:50.508Z,35.35
2019-06-26T12:40:51.764Z,35.35
2019-06-26T12:41:51.943Z,35.36
2019-06-26T12:42:55.712Z,35.36
2019-06-26T12:43:52.460Z,35.36
2019-06-26T12:44:53.518Z,35.36